Archival Weather

Wadi Al Dawasir

Wadi Al Dawasir, Saudi Arabia (OEWD)

Report from: Sunday, October 1, 2023 1:00 PM +03
Current time: Sunday, February 25, 2024 11:50 PM +03

Current weather – Weather history – Daily summaries
Weather forecast

Temperature39.0°C (102.2°F)
Heat index35.7°C (96.3°F)
Dew point-5.0°C (23.0°F)
Winds 2 kts (1 m/s, 2.3 mph) West (270°)
Clouds Sky clear
Altimeter29.88 in.Hg (1012 mB)
Relative humidity6 %
Density altitude2,818 ft. (859 m)
Remarks Ceiling and visibility OK
Flight conditions Visual Meteorological Conditions
Raw dataOEWD 011000Z 27002KT CAVOK 39/M05 Q1012
An error has occurred. This application may no longer respond until reloaded. Reload 🗙